Peckville, Pennsylvania
Current Conditions -  °F | °C
As of 2:02 PM on Thursday 23 Oct 2014 (Local Time) from KAVP Reporting Station
Light Rain Light Rain  
Wind Chill: 44°   Ceiling: 1500
Heat Index: 48°   Visibility: 4mi
Dew Point: 43°   Wind: 8mph
Humidity: 83%   Direction: 10°N
Pressure: 29.84"   Gusts: 18mph
Location:  41.48°N, 75.57°W
Report Text: KAVP 231802Z AUTO 01007G16KT 4SM -RA BKN015 OVC021 09/06 A2984 RMK AO2 P0001 T00890061
Loading
Personal Weather Stations






























Interactive Weather Map
Tropical Storm Tracking
New forecast layout! Learn more

10-Day Weather Forecast

Advertisements
Track Severe Weather on mobile